createdAt,value
2018-08-17T00:00:49.370Z,58.10
2018-08-17T00:03:17.633Z,58.20
2018-08-17T00:05:45.835Z,58.20
2018-08-17T00:08:14.151Z,58.20
2018-08-17T00:10:42.379Z,58.30
2018-08-17T00:13:10.671Z,58.60
2018-08-17T00:15:38.898Z,58.90
2018-08-17T00:18:07.102Z,59.10
2018-08-17T00:20:35.362Z,59.40
2018-08-17T00:23:03.588Z,59.70
2018-08-17T00:25:31.872Z,60.30
2018-08-17T00:28:00.090Z,60.80
2018-08-17T00:30:28.303Z,61.10
2018-08-17T00:32:56.518Z,61.20
2018-08-17T00:35:24.743Z,61.40
2018-08-17T00:37:52.964Z,61.50
2018-08-17T00:40:21.190Z,61.70
2018-08-17T00:42:49.442Z,61.70
2018-08-17T00:45:17.686Z,62.20
2018-08-17T00:47:45.890Z,62.20
2018-08-17T00:50:14.101Z,62.30
2018-08-17T00:52:42.381Z,62.30
2018-08-17T00:55:10.619Z,62.30
2018-08-17T00:57:38.854Z,62.40
2018-08-17T01:00:07.074Z,62.40
2018-08-17T01:02:35.361Z,62.20
2018-08-17T01:05:03.589Z,61.90
2018-08-17T01:07:31.802Z,62.30
2018-08-17T01:10:00.027Z,62.50
2018-08-17T01:12:28.234Z,62.70
2018-08-17T01:14:56.446Z,62.60
2018-08-17T01:17:24.677Z,62.70
2018-08-17T01:19:52.882Z,62.90
2018-08-17T01:22:21.118Z,63.10
2018-08-17T01:24:49.310Z,63.30
2018-08-17T01:27:17.583Z,63.40
2018-08-17T01:29:45.802Z,63.50
2018-08-17T01:32:14.027Z,63.50
2018-08-17T01:34:42.368Z,63.50
2018-08-17T01:37:10.582Z,63.50
2018-08-17T01:39:38.800Z,63.60
2018-08-17T01:42:07.027Z,64.00
2018-08-17T01:44:35.257Z,64.50
2018-08-17T01:47:03.503Z,64.70
2018-08-17T01:49:31.758Z,65.00
2018-08-17T01:52:00.014Z,65.20
2018-08-17T01:54:28.291Z,65.50
2018-08-17T01:56:56.500Z,65.70
2018-08-17T01:59:24.721Z,65.90
2018-08-17T02:01:52.950Z,66.10
2018-08-17T02:04:21.183Z,66.10
2018-08-17T02:06:49.448Z,66.20
2018-08-17T02:09:17.708Z,66.60
2018-08-17T02:11:45.934Z,67.30
2018-08-17T02:14:14.217Z,68.00
2018-08-17T02:16:42.462Z,68.30
2018-08-17T02:19:10.695Z,68.70
2018-08-17T02:21:38.882Z,69.10
2018-08-17T02:24:07.201Z,69.30
2018-08-17T02:26:35.468Z,69.20
2018-08-17T02:29:03.713Z,69.30
2018-08-17T02:31:31.965Z,69.40
2018-08-17T02:34:00.175Z,69.50
2018-08-17T02:36:28.435Z,69.60
2018-08-17T02:38:57.637Z,70.00
2018-08-17T02:41:25.902Z,70.40
2018-08-17T02:43:54.162Z,71.00
2018-08-17T02:46:22.351Z,71.90
2018-08-17T02:48:50.571Z,73.10
2018-08-17T02:51:18.885Z,74.10
2018-08-17T02:53:47.094Z,74.70
2018-08-17T02:56:15.348Z,75.40
2018-08-17T02:58:43.581Z,76.00
2018-08-17T03:01:11.825Z,76.10
2018-08-17T03:03:40.068Z,76.10
2018-08-17T03:06:08.511Z,76.10
2018-08-17T03:08:36.826Z,76.30
2018-08-17T03:11:05.061Z,76.50
2018-08-17T03:13:33.280Z,76.40
2018-08-17T03:16:01.474Z,76.50
2018-08-17T03:18:29.990Z,77.30
2018-08-17T03:20:58.295Z,76.40
2018-08-17T03:23:26.510Z,75.80
2018-08-17T03:25:54.710Z,75.70
2018-08-17T03:28:22.957Z,75.20
2018-08-17T03:30:51.183Z,74.70
2018-08-17T03:33:19.377Z,74.40
2018-08-17T03:35:47.619Z,74.10
2018-08-17T03:38:15.901Z,73.90
2018-08-17T03:40:44.082Z,73.60
2018-08-17T03:43:12.386Z,73.40
2018-08-17T03:45:40.630Z,73.60
2018-08-17T03:48:09.141Z,73.80
2018-08-17T03:50:37.398Z,73.70
2018-08-17T03:53:05.704Z,73.70
2018-08-17T03:55:33.945Z,73.60
2018-08-17T03:58:02.206Z,73.80
2018-08-17T04:00:30.451Z,74.80
2018-08-17T04:02:58.690Z,75.30
2018-08-17T04:05:26.926Z,75.70
2018-08-17T04:07:55.138Z,75.80
2018-08-17T04:10:23.338Z,76.00
2018-08-17T04:12:51.555Z,75.90
2018-08-17T04:15:19.805Z,75.70
2018-08-17T04:17:47.965Z,75.60
2018-08-17T04:20:16.234Z,75.60
2018-08-17T04:22:44.352Z,75.50
2018-08-17T04:25:12.545Z,75.00
2018-08-17T04:27:41.033Z,75.10
2018-08-17T04:30:09.323Z,74.70
2018-08-17T04:32:37.459Z,73.90
2018-08-17T04:35:05.782Z,74.00
2018-08-17T04:37:33.983Z,73.50
2018-08-17T04:40:02.173Z,73.40
2018-08-17T04:42:30.410Z,73.20
2018-08-17T04:44:58.648Z,73.00
2018-08-17T04:47:26.866Z,72.90
2018-08-17T04:49:55.079Z,72.80
2018-08-17T04:52:23.310Z,72.30
2018-08-17T04:54:51.511Z,71.90
2018-08-17T04:57:19.730Z,71.60
2018-08-17T04:59:47.902Z,71.30
2018-08-17T05:02:16.112Z,70.80
2018-08-17T05:04:44.319Z,70.60
2018-08-17T05:07:12.501Z,70.50
2018-08-17T05:09:40.757Z,69.80
2018-08-17T05:12:09.079Z,69.60
2018-08-17T05:14:37.275Z,70.00
2018-08-17T05:17:05.499Z,70.20
2018-08-17T05:19:33.720Z,70.30
2018-08-17T05:22:01.897Z,69.60
2018-08-17T05:24:30.142Z,69.00
2018-08-17T05:26:58.406Z,68.50
2018-08-17T05:29:26.595Z,69.20
2018-08-17T05:31:54.784Z,68.50
2018-08-17T05:34:23.007Z,68.50
2018-08-17T05:36:51.220Z,68.20
2018-08-17T05:39:19.474Z,67.40
2018-08-17T05:41:47.718Z,66.90
2018-08-17T05:44:15.929Z,66.40
2018-08-17T05:46:44.141Z,66.30
2018-08-17T05:49:12.353Z,66.00
2018-08-17T05:51:40.614Z,65.90
2018-08-17T05:54:08.903Z,65.70
2018-08-17T05:56:37.300Z,66.10
2018-08-17T05:59:05.623Z,66.30
2018-08-17T06:01:33.847Z,66.80
2018-08-17T06:04:02.090Z,68.00
2018-08-17T06:06:30.282Z,69.50
2018-08-17T06:08:58.523Z,70.80
2018-08-17T06:11:26.827Z,72.80
2018-08-17T06:13:55.011Z,73.90
2018-08-17T06:16:23.237Z,75.20
2018-08-17T06:18:51.427Z,84.30
2018-08-17T06:21:19.660Z,90.00
2018-08-17T06:23:47.865Z,90.30
2018-08-17T06:26:16.158Z,90.10
2018-08-17T06:28:44.395Z,90.80
2018-08-17T06:31:12.629Z,91.90
2018-08-17T06:33:40.905Z,93.00
2018-08-17T06:36:09.207Z,93.50
2018-08-17T06:38:37.343Z,93.60
2018-08-17T06:41:06.066Z,91.50
2018-08-17T06:43:34.303Z,91.50
2018-08-17T06:46:02.529Z,92.10
2018-08-17T06:48:30.852Z,92.10
2018-08-17T06:50:59.172Z,91.20
2018-08-17T06:53:28.320Z,92.10
2018-08-17T06:55:56.561Z,92.30
2018-08-17T06:58:24.774Z,91.90
2018-08-17T07:00:53.030Z,91.20
2018-08-17T07:03:21.249Z,91.40
2018-08-17T07:05:49.498Z,91.20
2018-08-17T07:08:18.606Z,91.30
2018-08-17T07:10:46.810Z,90.50
2018-08-17T07:13:15.047Z,90.80
2018-08-17T07:15:43.274Z,90.70
2018-08-17T07:18:11.503Z,90.70
2018-08-17T07:20:39.714Z,89.80
2018-08-17T07:23:07.903Z,89.70
2018-08-17T07:25:36.118Z,90.10
2018-08-17T07:28:04.402Z,89.90
2018-08-17T07:30:32.579Z,89.00
2018-08-17T07:33:00.924Z,87.70
2018-08-17T07:38:07.742Z,85.00
2018-08-17T07:40:35.932Z,85.00
2018-08-17T07:43:04.147Z,85.10
2018-08-17T07:45:32.385Z,84.60
2018-08-17T07:48:00.628Z,84.60
2018-08-17T07:50:28.815Z,84.60
2018-08-17T07:52:57.076Z,84.50
2018-08-17T07:55:25.286Z,84.10
2018-08-17T07:57:53.519Z,84.40
2018-08-17T08:00:21.714Z,84.60
2018-08-17T08:02:49.941Z,83.00
2018-08-17T08:05:18.174Z,83.00
2018-08-17T08:07:46.394Z,83.70
2018-08-17T08:10:14.631Z,83.80
2018-08-17T08:12:42.858Z,84.30
2018-08-17T08:15:11.115Z,84.20
2018-08-17T08:17:39.433Z,83.10
2018-08-17T08:20:19.103Z,83.20
2018-08-17T08:22:47.270Z,81.20
2018-08-17T08:25:15.499Z,77.80
2018-08-17T08:27:43.710Z,74.30
2018-08-17T08:30:11.956Z,72.90
2018-08-17T08:32:40.174Z,73.90
2018-08-17T08:35:08.885Z,75.40
2018-08-17T08:37:37.081Z,77.10
2018-08-17T08:40:05.847Z,77.30
2018-08-17T08:42:34.077Z,77.70
2018-08-17T08:45:02.335Z,78.30
2018-08-17T08:47:30.551Z,77.70
2018-08-17T08:49:58.791Z,78.40
2018-08-17T08:52:27.223Z,79.30
2018-08-17T08:54:55.414Z,80.00
2018-08-17T08:57:23.720Z,80.60
2018-08-17T08:59:51.926Z,81.60
2018-08-17T09:02:20.174Z,80.80
2018-08-17T09:04:48.456Z,80.50
2018-08-17T09:07:16.650Z,79.40
2018-08-17T09:09:44.896Z,77.70
2018-08-17T09:12:13.154Z,77.20
2018-08-17T09:14:41.450Z,77.30
2018-08-17T09:17:09.674Z,77.40
2018-08-17T09:19:37.882Z,76.50
2018-08-17T09:22:06.226Z,76.70
2018-08-17T09:24:34.483Z,76.80
2018-08-17T09:27:02.821Z,76.30
2018-08-17T09:29:31.022Z,77.60
2018-08-17T09:31:59.539Z,77.70
2018-08-17T09:34:27.758Z,77.20
2018-08-17T09:36:56.121Z,77.40
2018-08-17T09:39:24.341Z,77.90
2018-08-17T09:41:52.640Z,78.50
2018-08-17T09:44:20.938Z,77.30
2018-08-17T09:46:49.227Z,76.90
2018-08-17T09:49:17.456Z,76.30
2018-08-17T09:51:45.695Z,77.40
2018-08-17T09:54:13.892Z,77.70
2018-08-17T09:56:42.148Z,79.00
2018-08-17T09:59:10.477Z,79.60
2018-08-17T10:02:46.960Z,79.90
2018-08-17T10:05:20.920Z,80.10
2018-08-17T10:07:54.698Z,80.80
2018-08-17T10:10:24.382Z,80.60
2018-08-17T10:12:53.110Z,79.90
2018-08-17T10:15:22.667Z,78.80
2018-08-17T10:17:50.856Z,77.80
2018-08-17T10:20:21.373Z,76.80
2018-08-17T10:22:50.278Z,74.80
2018-08-17T10:25:25.694Z,74.60
2018-08-17T10:27:55.292Z,75.30
2018-08-17T10:30:23.930Z,75.50
2018-08-17T10:32:58.454Z,75.10
2018-08-17T10:35:30.043Z,74.70
2018-08-17T10:37:59.562Z,73.80
2018-08-17T10:40:27.960Z,71.80
2018-08-17T10:42:57.418Z,72.30
2018-08-17T10:45:26.326Z,71.80
2018-08-17T10:47:55.081Z,71.90
2018-08-17T10:50:24.571Z,70.60
2018-08-17T10:52:57.041Z,71.40
2018-08-17T10:55:46.548Z,69.30
2018-08-17T10:58:16.209Z,68.80
2018-08-17T11:00:45.535Z,68.90
2018-08-17T11:03:13.764Z,70.00
2018-08-17T11:05:42.294Z,70.70
2018-08-17T11:08:10.574Z,70.10
2018-08-17T11:10:39.104Z,70.00
2018-08-17T11:13:07.308Z,70.00
2018-08-17T11:15:35.559Z,70.40
2018-08-17T11:18:03.750Z,71.90
2018-08-17T11:20:32.056Z,71.60
2018-08-17T11:23:00.342Z,70.90
2018-08-17T11:25:28.474Z,70.90
2018-08-17T11:27:56.741Z,68.90
2018-08-17T11:30:24.968Z,68.30
2018-08-17T11:32:53.211Z,66.50
2018-08-17T11:35:21.463Z,66.10
2018-08-17T11:37:49.686Z,66.60
2018-08-17T11:40:17.890Z,67.90
2018-08-17T11:42:48.062Z,68.60
2018-08-17T11:45:24.191Z,68.70
2018-08-17T11:47:53.017Z,67.10
2018-08-17T11:50:22.515Z,67.30
2018-08-17T11:52:51.718Z,66.70
2018-08-17T11:55:20.794Z,66.00
2018-08-17T11:57:49.078Z,64.80
2018-08-17T12:00:17.401Z,64.40
2018-08-17T12:02:45.942Z,64.70
2018-08-17T12:05:14.241Z,65.60
2018-08-17T12:07:43.321Z,66.20
2018-08-17T12:10:11.551Z,67.30
2018-08-17T12:12:41.474Z,67.00
2018-08-17T12:15:10.798Z,66.40
2018-08-17T12:17:39.045Z,65.90
2018-08-17T12:20:07.692Z,66.10
2018-08-17T12:22:35.939Z,66.50
2018-08-17T12:25:04.784Z,66.70
2018-08-17T12:27:33.089Z,66.70
2018-08-17T12:30:01.271Z,67.50
2018-08-17T12:32:29.497Z,67.10
2018-08-17T12:34:57.700Z,67.90
2018-08-17T12:37:25.919Z,68.80
2018-08-17T12:39:54.096Z,70.00
2018-08-17T12:42:22.293Z,69.60
2018-08-17T12:44:50.495Z,70.20
2018-08-17T12:47:18.711Z,69.70
2018-08-17T12:49:46.919Z,68.50
2018-08-17T12:52:15.245Z,68.20
2018-08-17T12:54:43.413Z,68.30
2018-08-17T12:57:11.687Z,68.10
2018-08-17T12:59:40.007Z,68.00
2018-08-17T13:02:08.225Z,68.00
2018-08-17T13:04:36.415Z,67.60
2018-08-17T13:07:04.655Z,67.10
2018-08-17T13:09:32.886Z,67.90
2018-08-17T13:12:01.967Z,68.20
2018-08-17T13:14:30.475Z,68.60
2018-08-17T13:17:00.903Z,68.80
2018-08-17T13:19:29.193Z,67.90
2018-08-17T13:21:57.584Z,68.30
2018-08-17T13:24:25.805Z,66.20
2018-08-17T13:26:54.136Z,64.50
2018-08-17T13:29:23.846Z,63.90
2018-08-17T13:31:52.075Z,63.40
2018-08-17T13:34:20.282Z,65.00
2018-08-17T13:36:48.741Z,63.60
2018-08-17T13:39:16.943Z,63.70
2018-08-17T13:41:45.185Z,63.80
2018-08-17T13:44:13.427Z,61.70
2018-08-17T13:46:41.862Z,61.70
2018-08-17T13:49:10.069Z,60.10
2018-08-17T13:51:38.305Z,60.80
2018-08-17T13:54:09.610Z,60.80
2018-08-17T13:56:37.882Z,60.00
2018-08-17T13:59:06.074Z,60.50
2018-08-17T14:01:34.310Z,59.70
2018-08-17T14:04:02.581Z,58.80
2018-08-17T14:06:30.797Z,58.50
2018-08-17T14:08:59.054Z,57.30
2018-08-17T14:11:27.298Z,58.00
2018-08-17T14:13:55.555Z,58.30
2018-08-17T14:16:23.771Z,58.00
2018-08-17T14:18:52.015Z,57.40
2018-08-17T14:21:20.247Z,57.10
2018-08-17T14:23:48.542Z,56.50
2018-08-17T14:26:16.791Z,56.60
2018-08-17T14:28:45.003Z,56.70
2018-08-17T14:31:13.293Z,56.60
2018-08-17T14:33:41.545Z,57.00
2018-08-17T14:36:09.779Z,57.50
2018-08-17T14:38:38.028Z,57.90
2018-08-17T14:41:06.426Z,58.20
2018-08-17T14:43:34.963Z,58.20
2018-08-17T14:46:03.217Z,57.80
2018-08-17T14:48:32.039Z,57.70
2018-08-17T14:51:00.264Z,57.50
2018-08-17T14:53:28.470Z,57.30
2018-08-17T14:55:56.718Z,57.80
2018-08-17T14:58:24.938Z,57.90
2018-08-17T15:00:53.136Z,57.00
2018-08-17T15:03:21.370Z,56.10
2018-08-17T15:05:49.547Z,52.90
2018-08-17T15:08:17.764Z,53.40
2018-08-17T15:10:46.016Z,53.00
2018-08-17T15:13:14.271Z,52.30
2018-08-17T15:15:42.569Z,53.60
2018-08-17T15:18:10.892Z,53.70
2018-08-17T15:20:39.123Z,53.70
2018-08-17T15:23:08.171Z,52.80
2018-08-17T15:25:37.007Z,52.40
2018-08-17T15:28:06.711Z,49.90
2018-08-17T15:30:34.894Z,49.10
2018-08-17T15:33:03.166Z,48.70
2018-08-17T15:35:31.475Z,48.70
2018-08-17T15:37:59.714Z,48.10
2018-08-17T15:40:28.101Z,48.00
2018-08-17T15:42:58.684Z,48.50
2018-08-17T15:45:26.886Z,48.30
2018-08-17T15:47:55.224Z,48.20
2018-08-17T15:50:23.599Z,48.90
2018-08-17T15:52:51.831Z,50.00
2018-08-17T15:55:20.051Z,50.00
2018-08-17T15:57:48.871Z,50.50
2018-08-17T16:00:19.080Z,50.50
2018-08-17T16:02:47.735Z,51.10
2018-08-17T16:05:15.977Z,50.60
2018-08-17T16:07:44.235Z,50.80
2018-08-17T16:10:14.101Z,51.10
2018-08-17T16:12:42.450Z,51.40
2018-08-17T16:15:12.175Z,51.20
2018-08-17T16:17:40.440Z,50.80
2018-08-17T16:20:13.282Z,50.40
2018-08-17T16:22:42.374Z,50.10
2018-08-17T16:25:11.598Z,49.90
2018-08-17T16:27:40.199Z,50.20
2018-08-17T16:30:10.323Z,50.50
2018-08-17T16:32:38.558Z,50.20
2018-08-17T16:35:06.903Z,49.90
2018-08-17T16:37:35.170Z,49.80
2018-08-17T16:40:03.387Z,49.60
2018-08-17T16:42:35.430Z,49.50
2018-08-17T16:45:04.893Z,49.80
2018-08-17T16:47:33.090Z,49.70
2018-08-17T16:50:01.309Z,49.80
2018-08-17T16:52:29.544Z,49.70
2018-08-17T16:54:57.774Z,50.10
2018-08-17T16:57:26.017Z,50.20
2018-08-17T16:59:54.418Z,49.50
2018-08-17T17:02:22.649Z,49.20
2018-08-17T17:04:51.286Z,48.80
2018-08-17T17:07:19.642Z,48.70
2018-08-17T17:09:48.031Z,48.00
2018-08-17T17:12:17.835Z,47.50
2018-08-17T17:14:46.317Z,48.00
2018-08-17T17:17:14.818Z,48.20
2018-08-17T17:19:43.102Z,48.20
2018-08-17T17:22:14.524Z,48.00
2018-08-17T17:24:42.737Z,47.60
2018-08-17T17:27:10.963Z,47.70
2018-08-17T17:29:39.523Z,47.80
2018-08-17T17:32:07.771Z,47.30
2018-08-17T17:34:36.013Z,46.60
2018-08-17T17:37:04.273Z,46.40
2018-08-17T17:39:32.514Z,46.60
2018-08-17T17:42:00.728Z,46.30
2018-08-17T17:44:28.955Z,46.30
2018-08-17T17:46:57.183Z,46.00
2018-08-17T17:49:25.435Z,46.40
2018-08-17T17:51:53.604Z,46.00
2018-08-17T17:54:23.687Z,46.00
2018-08-17T17:57:03.468Z,45.70
2018-08-17T17:59:31.834Z,45.60
2018-08-17T18:02:00.114Z,45.50
2018-08-17T18:04:31.314Z,45.50
2018-08-17T18:06:59.822Z,45.40
2018-08-17T18:09:28.045Z,45.60
2018-08-17T18:11:57.049Z,45.50
2018-08-17T18:14:25.547Z,45.50
2018-08-17T18:16:53.730Z,45.70
2018-08-17T18:19:22.042Z,45.40
2018-08-17T18:21:50.312Z,45.70
2018-08-17T18:24:18.512Z,45.70
2018-08-17T18:26:48.125Z,45.90
2018-08-17T18:29:16.842Z,46.00
2018-08-17T18:31:45.205Z,46.00
2018-08-17T18:34:13.725Z,46.40
2018-08-17T18:36:42.021Z,47.00
2018-08-17T18:39:11.811Z,47.00
2018-08-17T18:41:40.130Z,46.60
2018-08-17T18:44:08.393Z,46.70
2018-08-17T18:46:36.963Z,46.80
2018-08-17T18:49:05.331Z,46.80
2018-08-17T18:51:33.582Z,47.10
2018-08-17T18:54:01.820Z,47.10
2018-08-17T18:56:30.077Z,47.30
2018-08-17T18:58:58.316Z,47.90
2018-08-17T19:01:26.535Z,48.10
2018-08-17T19:03:54.932Z,48.30
2018-08-17T19:06:23.155Z,48.80
2018-08-17T19:08:51.369Z,48.80
2018-08-17T19:11:19.605Z,48.90
2018-08-17T19:13:47.827Z,49.60
2018-08-17T19:16:16.109Z,49.70
2018-08-17T19:18:44.345Z,49.70
2018-08-17T19:21:19.490Z,49.40
2018-08-17T19:23:47.732Z,49.80
2018-08-17T19:26:15.939Z,49.90
2018-08-17T19:28:44.611Z,50.20
2018-08-17T19:31:12.898Z,50.00
2018-08-17T19:33:41.122Z,50.20
2018-08-17T19:36:09.364Z,50.30
2018-08-17T19:38:41.724Z,50.40
2018-08-17T19:41:10.308Z,50.30
2018-08-17T19:43:39.196Z,50.60
2018-08-17T19:46:07.664Z,50.40
2018-08-17T19:48:35.914Z,50.20
2018-08-17T19:51:08.382Z,50.30
2018-08-17T19:53:36.609Z,50.60
2018-08-17T19:56:04.919Z,50.60
2018-08-17T19:58:33.164Z,51.10
2018-08-17T20:01:01.361Z,51.60
2018-08-17T20:03:29.604Z,51.90
2018-08-17T20:05:57.869Z,52.30
2018-08-17T20:08:26.098Z,52.50
2018-08-17T20:10:54.330Z,52.70
2018-08-17T20:13:22.576Z,53.60
2018-08-17T20:15:50.816Z,53.20
2018-08-17T20:18:19.040Z,53.50
2018-08-17T20:20:47.307Z,53.80
2018-08-17T20:23:15.519Z,54.00
2018-08-17T20:25:43.853Z,54.20
2018-08-17T20:28:12.042Z,54.40
2018-08-17T20:30:40.293Z,54.50
2018-08-17T20:33:15.742Z,54.80
2018-08-17T20:35:44.023Z,55.10
2018-08-17T20:38:12.265Z,55.30
2018-08-17T20:40:40.727Z,55.50
2018-08-17T20:43:08.961Z,55.30
2018-08-17T20:45:37.216Z,55.60
2018-08-17T20:48:05.564Z,56.00
2018-08-17T20:50:33.814Z,56.10
2018-08-17T20:53:03.158Z,56.10
2018-08-17T20:55:31.472Z,56.10
2018-08-17T20:57:59.839Z,56.10
2018-08-17T21:00:29.162Z,56.30
2018-08-17T21:02:57.399Z,56.40
2018-08-17T21:05:25.732Z,56.30
2018-08-17T21:07:54.007Z,56.30
2018-08-17T21:10:22.258Z,56.40
2018-08-17T21:12:50.716Z,56.40
2018-08-17T21:15:19.314Z,56.30
2018-08-17T21:17:48.109Z,56.40
2018-08-17T21:20:16.540Z,56.60
2018-08-17T21:22:45.693Z,56.60
2018-08-17T21:25:14.410Z,56.70
2018-08-17T21:27:43.288Z,56.70
2018-08-17T21:30:12.220Z,56.90
2018-08-17T21:32:40.736Z,57.00
2018-08-17T21:35:09.380Z,57.20
2018-08-17T21:37:38.284Z,57.10
2018-08-17T21:40:13.776Z,57.00
2018-08-17T21:42:42.278Z,57.20
2018-08-17T21:45:10.689Z,57.20
2018-08-17T21:47:39.108Z,57.50
2018-08-17T21:50:15.043Z,57.60
2018-08-17T21:52:44.503Z,57.70
2018-08-17T21:55:12.903Z,58.10
2018-08-17T21:57:41.401Z,58.60
2018-08-17T22:00:18.432Z,59.10
2018-08-17T22:02:46.821Z,59.60
2018-08-17T22:05:20.311Z,59.90
2018-08-17T22:07:48.549Z,60.30
2018-08-17T22:10:16.800Z,60.60
2018-08-17T22:12:45.095Z,60.90
2018-08-17T22:15:13.311Z,61.20
2018-08-17T22:17:41.636Z,61.20
2018-08-17T22:20:10.687Z,61.40
2018-08-17T22:22:40.347Z,61.70
2018-08-17T22:25:14.418Z,61.50
2018-08-17T22:27:43.326Z,61.90
2018-08-17T22:30:24.020Z,61.70
2018-08-17T22:32:52.700Z,61.90
2018-08-17T22:35:21.171Z,62.10
2018-08-17T22:37:49.433Z,62.30
2018-08-17T22:40:17.673Z,62.40
2018-08-17T22:42:47.379Z,62.90
2018-08-17T22:45:15.935Z,63.00
2018-08-17T22:47:44.297Z,63.10
2018-08-17T22:50:12.572Z,63.20
2018-08-17T22:52:40.824Z,63.00
2018-08-17T22:55:09.648Z,62.80
2018-08-17T22:57:37.865Z,63.10
2018-08-17T23:00:27.146Z,63.20
2018-08-17T23:02:56.593Z,63.30
2018-08-17T23:05:26.337Z,63.50
2018-08-17T23:07:54.582Z,63.70
2018-08-17T23:10:24.124Z,64.00
2018-08-17T23:12:53.671Z,64.20
2018-08-17T23:15:22.034Z,64.10
2018-08-17T23:17:52.001Z,63.80
2018-08-17T23:20:25.891Z,63.70
2018-08-17T23:22:55.366Z,63.80
2018-08-17T23:25:23.852Z,64.00
2018-08-17T23:27:52.669Z,64.20
2018-08-17T23:30:21.132Z,64.70
2018-08-17T23:32:49.636Z,65.20
2018-08-17T23:35:17.964Z,65.50
2018-08-17T23:37:46.162Z,65.80
2018-08-17T23:40:14.399Z,66.00
2018-08-17T23:42:43.540Z,66.00
2018-08-17T23:45:13.585Z,65.80
2018-08-17T23:47:41.907Z,65.90
2018-08-17T23:50:11.366Z,65.90
2018-08-17T23:52:39.624Z,65.80
2018-08-17T23:55:09.789Z,66.10
2018-08-17T23:57:38.021Z,66.40
